Time;durP1;ratioP1;P1;durP2;ratioP2;P2;SDS_P1;SDS_P2;PMS_P1;PMS_P2;Temp;Humidity;BMP_temperature;BMP_pressure;BME280_temperature;BME280_humidity;BME280_pressure;Samples;Min_cycle;Max_cycle;Signal;HPM_P1;HPM_P2
2022/12/03 00:00:58;;;;;;;31.93;19.00;;;4.00;54.40;;;;;;5022544;28;20443;-77
2022/12/03 00:03:24;;;;;;;30.17;19.70;;;4.10;55.50;;;;;;5019498;28;20444;-77
2022/12/03 00:05:49;;;;;;;27.38;16.90;;;4.10;54.90;;;;;;5018929;28;20411;-77
2022/12/03 00:08:15;;;;;;;28.55;17.27;;;4.20;52.90;;;;;;5023612;28;20392;-79
2022/12/03 00:10:41;;;;;;;24.83;16.25;;;4.10;51.60;;;;;;5038935;28;20416;-78
2022/12/03 00:13:06;;;;;;;30.23;18.15;;;4.10;52.80;;;;;;5019179;28;20415;-77
2022/12/03 00:15:32;;;;;;;28.80;18.57;;;4.10;54.10;;;;;;5018941;28;20513;-77
2022/12/03 00:17:57;;;;;;;29.03;18.37;;;4.10;52.80;;;;;;5017668;28;20385;-78
2022/12/03 00:20:24;;;;;;;26.77;17.03;;;4.10;53.00;;;;;;5017607;28;20389;-77
2022/12/03 00:22:50;;;;;;;28.60;17.10;;;4.10;53.90;;;;;;5017150;28;20467;-76
2022/12/03 00:25:16;;;;;;;27.25;17.40;;;4.10;52.60;;;;;;5021316;28;20390;-77
2022/12/03 00:27:42;;;;;;;28.70;18.57;;;4.10;52.90;;;;;;5037718;28;20428;-76
2022/12/03 00:30:08;;;;;;;28.25;18.10;;;4.10;54.20;;;;;;5023465;28;20389;-76
2022/12/03 00:32:34;;;;;;;29.00;18.50;;;4.00;53.90;;;;;;5021694;28;20762;-76
2022/12/03 00:34:59;;;;;;;32.23;20.33;;;4.10;54.60;;;;;;5021019;28;20401;-78
2022/12/03 00:37:25;;;;;;;37.43;23.47;;;4.00;56.00;;;;;;5022211;28;20400;-78
2022/12/03 00:39:51;;;;;;;28.20;19.10;;;4.10;61.40;;;;;;5018385;28;20898;-77
2022/12/03 00:42:16;;;;;;;27.37;17.63;;;4.10;57.60;;;;;;5018427;28;20415;-77
2022/12/03 00:44:42;;;;;;;32.47;18.53;;;4.10;55.50;;;;;;5019850;28;20388;-77
2022/12/03 00:47:08;;;;;;;30.00;19.50;;;4.10;56.80;;;;;;5019505;28;20409;-78
2022/12/03 00:49:34;;;;;;;27.83;18.40;;;4.10;59.10;;;;;;5024443;28;20881;-78
2022/12/03 00:51:59;;;;;;;28.83;19.45;;;4.10;56.80;;;;;;5040184;28;20413;-78
2022/12/03 00:54:25;;;;;;;31.80;20.38;;;4.20;57.50;;;;;;5023228;28;20389;-76
2022/12/03 00:56:50;;;;;;;32.65;21.13;;;4.30;56.80;;;;;;5014818;28;20876;-77
2022/12/03 00:59:16;;;;;;;27.70;18.40;;;4.30;58.90;;;;;;5015604;28;20388;-77
2022/12/03 01:01:42;;;;;;;30.03;18.13;;;4.30;53.90;;;;;;5030322;28;20395;-78
2022/12/03 01:04:07;;;;;;;28.30;18.60;;;4.30;53.30;;;;;;5014374;28;20435;-77
2022/12/03 01:06:33;;;;;;;27.60;17.70;;;4.30;53.40;;;;;;5017809;28;20397;-76
2022/12/03 01:08:59;;;;;;;29.50;18.70;;;4.30;53.10;;;;;;5016463;28;20385;-77
2022/12/03 01:11:36;;;;;;;27.83;17.23;;;4.30;54.10;;;;;;5015618;28;20404;-77
2022/12/03 01:14:04;;;;;;;27.60;17.27;;;4.30;52.20;;;;;;5016663;28;20865;-78
2022/12/03 01:16:29;;;;;;;27.17;16.85;;;4.30;52.10;;;;;;5015327;28;20475;-77
2022/12/03 01:18:55;;;;;;;26.77;17.00;;;4.30;52.20;;;;;;5016308;28;20460;-79
2022/12/03 01:21:20;;;;;;;28.50;18.20;;;4.30;52.20;;;;;;5017378;28;20381;-78
2022/12/03 01:23:46;;;;;;;28.93;17.70;;;4.20;52.40;;;;;;5020859;28;20475;-77
2022/12/03 01:26:11;;;;;;;28.70;17.60;;;4.20;53.20;;;;;;5020520;28;20388;-76
2022/12/03 01:28:37;;;;;;;28.35;18.15;;;4.20;53.30;;;;;;5021257;28;20384;-77
2022/12/03 01:33:47;;;;;;;27.17;17.05;;;4.20;52.60;;;;;;5023668;28;20404;-76
2022/12/03 01:36:12;;;;;;;27.70;18.23;;;4.30;51.20;;;;;;5019765;28;20595;-77
2022/12/03 01:38:38;;;;;;;31.20;18.73;;;4.40;51.00;;;;;;5017756;28;20487;-79
2022/12/03 01:41:03;;;;;;;27.77;17.48;;;4.30;52.30;;;;;;5015229;28;20400;-77
2022/12/03 01:43:29;;;;;;;28.65;18.73;;;4.30;52.10;;;;;;5016979;28;20408;-77
2022/12/03 01:45:55;;;;;;;25.87;17.30;;;4.30;52.50;;;;;;5017373;28;20528;-77
2022/12/03 01:48:21;;;;;;;26.73;17.83;;;4.40;51.30;;;;;;5016059;28;20395;-78
2022/12/03 01:50:46;;;;;;;31.63;18.70;;;4.30;52.70;;;;;;5016967;28;20921;-77
2022/12/03 01:53:15;;;;;;;31.85;19.90;;;4.30;52.30;;;;;;5016242;28;20897;-77
2022/12/03 01:55:42;;;;;;;30.77;19.60;;;4.30;53.60;;;;;;5018247;28;20391;-78
2022/12/03 01:58:11;;;;;;;32.15;18.95;;;4.40;56.10;;;;;;5022624;28;20432;-78
2022/12/03 02:00:37;;;;;;;30.02;18.90;;;4.40;52.70;;;;;;5020958;28;20388;-77
2022/12/03 02:03:19;;;;;;;29.17;17.88;;;4.30;53.20;;;;;;5015055;28;20766;-77
2022/12/03 02:05:45;;;;;;;28.52;18.30;;;4.30;52.10;;;;;;5017276;28;20380;-77
2022/12/03 02:08:32;;;;;;;25.38;18.00;;;4.40;52.70;;;;;;5021723;28;20392;-77
2022/12/03 02:11:03;;;;;;;30.95;19.52;;;4.40;53.10;;;;;;5036275;28;20391;-76
2022/12/03 02:13:29;;;;;;;27.50;17.90;;;4.30;53.60;;;;;;5021322;28;20389;-77
2022/12/03 02:15:55;;;;;;;28.95;18.10;;;4.30;54.30;;;;;;5032269;28;20480;-78
2022/12/03 02:18:20;;;;;;;29.60;18.90;;;4.40;54.70;;;;;;5017601;28;20434;-77
2022/12/03 02:20:59;;;;;;;34.93;21.40;;;4.40;54.70;;;;;;5017732;28;20397;-77
2022/12/03 02:23:48;;;;;;;28.45;18.33;;;4.50;55.30;;;;;;5031762;28;20523;-76
2022/12/03 02:26:13;;;;;;;36.45;22.23;;;4.40;55.00;;;;;;5015441;28;20381;-77
2022/12/03 02:28:39;;;;;;;33.35;20.88;;;4.30;57.30;;;;;;5016445;28;20393;-77
2022/12/03 02:31:05;;;;;;;30.65;18.52;;;4.40;58.00;;;;;;5015126;28;20389;-77
2022/12/03 02:33:31;;;;;;;28.67;18.40;;;4.40;53.10;;;;;;5022403;28;20448;-75
2022/12/03 02:35:57;;;;;;;31.60;19.88;;;4.40;52.70;;;;;;5032485;28;20411;-76
2022/12/03 02:38:25;;;;;;;29.42;19.35;;;4.50;56.60;;;;;;5032601;28;20403;-76
2022/12/03 02:40:55;;;;;;;33.03;19.80;;;4.40;55.30;;;;;;5033569;28;20376;-75
2022/12/03 02:43:21;;;;;;;30.73;18.90;;;4.40;53.00;;;;;;5035892;28;20507;-75
2022/12/03 02:45:50;;;;;;;29.48;18.25;;;4.40;54.10;;;;;;5034410;28;20412;-76
2022/12/03 02:48:36;;;;;;;28.10;17.60;;;4.40;52.20;;;;;;5024272;28;20385;-76
2022/12/03 02:51:06;;;;;;;30.60;19.40;;;4.40;52.10;;;;;;5017360;28;20410;-77
2022/12/03 02:53:45;;;;;;;29.75;19.02;;;4.30;54.50;;;;;;5018418;28;20385;-77
2022/12/03 02:56:13;;;;;;;31.90;18.43;;;4.30;56.00;;;;;;5018337;28;20492;-79
2022/12/03 02:58:41;;;;;;;31.67;18.47;;;4.30;54.10;;;;;;5030597;23;20480;-74
2022/12/03 03:01:08;;;;;;;29.33;19.15;;;4.20;55.50;;;;;;5021690;28;20406;-74
2022/12/03 03:03:35;;;;;;;31.17;19.48;;;4.10;57.50;;;;;;5021100;28;20931;-74
2022/12/03 03:06:03;;;;;;;31.25;19.52;;;4.10;59.30;;;;;;5018133;28;20660;-73
2022/12/03 03:08:29;;;;;;;33.47;19.27;;;4.10;58.00;;;;;;5018518;28;20401;-75
2022/12/03 03:10:56;;;;;;;34.17;20.73;;;4.20;57.90;;;;;;5016346;28;20420;-74
2022/12/03 03:13:22;;;;;;;33.00;19.50;;;4.20;61.50;;;;;;5017256;28;20446;-74
2022/12/03 03:15:48;;;;;;;32.80;20.40;;;4.30;57.70;;;;;;5014999;28;20408;-74
2022/12/03 03:18:14;;;;;;;32.08;20.08;;;4.40;60.10;;;;;;5014759;28;20484;-74
2022/12/03 03:20:40;;;;;;;30.23;18.83;;;4.40;60.60;;;;;;5029737;28;20492;-77
2022/12/03 03:23:20;;;;;;;34.92;21.10;;;4.40;56.40;;;;;;5031586;28;20472;-75
2022/12/03 03:25:57;;;;;;;34.08;21.17;;;4.40;56.80;;;;;;5014879;28;20432;-74
2022/12/03 03:28:24;;;;;;;36.17;21.58;;;4.40;58.40;;;;;;5018642;28;20464;-74
2022/12/03 03:30:51;;;;;;;33.55;21.08;;;4.30;61.60;;;;;;5016065;28;20396;-73
2022/12/03 03:33:17;;;;;;;31.42;19.40;;;4.20;61.00;;;;;;5014649;28;20985;-75
2022/12/03 03:35:44;;;;;;;33.50;20.83;;;4.20;60.50;;;;;;5012861;28;20408;-74
2022/12/03 03:38:09;;;;;;;33.25;20.48;;;4.20;62.70;;;;;;5013831;28;20597;-74
2022/12/03 03:40:37;;;;;;;31.63;19.00;;;4.30;59.60;;;;;;5013949;28;20449;-74
2022/12/03 03:43:03;;;;;;;35.10;20.75;;;4.50;56.30;;;;;;5013222;28;20913;-74
2022/12/03 03:45:28;;;;;;;32.75;19.55;;;4.50;56.60;;;;;;5013793;28;20928;-74
2022/12/03 03:47:56;;;;;;;31.55;18.25;;;4.40;55.40;;;;;;5013872;28;20385;-74
2022/12/03 03:50:21;;;;;;;32.00;19.05;;;4.40;56.00;;;;;;5014024;28;20694;-74
2022/12/03 03:52:47;;;;;;;30.42;19.65;;;4.30;55.70;;;;;;5013193;28;20401;-74
2022/12/03 03:55:13;;;;;;;33.37;20.00;;;4.20;56.60;;;;;;5013585;28;20371;-74
2022/12/03 03:57:39;;;;;;;32.22;19.92;;;4.20;57.60;;;;;;5013570;28;20431;-74
2022/12/03 04:00:07;;;;;;;34.17;20.45;;;4.20;57.70;;;;;;5013456;28;20800;-74
2022/12/03 04:02:33;;;;;;;35.22;21.63;;;4.20;57.80;;;;;;5012296;28;20408;-74
2022/12/03 04:04:59;;;;;;;33.85;20.55;;;4.20;58.30;;;;;;5013243;28;20918;-74
2022/12/03 04:07:24;;;;;;;33.33;20.10;;;4.10;58.60;;;;;;5011602;28;20488;-74
2022/12/03 04:09:50;;;;;;;33.65;19.52;;;4.10;57.80;;;;;;5013444;28;20393;-74
2022/12/03 04:15:00;;;;;;;35.90;20.25;;;4.10;57.20;;;;;;5013943;28;20392;-73
2022/12/03 04:17:25;;;;;;;34.30;20.05;;;4.10;56.10;;;;;;5014354;28;20380;-73
2022/12/03 04:19:51;;;;;;;39.83;20.45;;;4.00;56.90;;;;;;5014163;28;20467;-73
2022/12/03 04:30:42;;;;;;;36.97;21.45;;;3.90;59.70;;;;;;5014533;28;20881;-74
2022/12/03 04:35:52;;;;;;;40.55;22.17;;;3.80;63.30;;;;;;5014035;28;20388;-73
2022/12/03 04:38:17;;;;;;;40.43;21.80;;;3.80;60.80;;;;;;5013640;28;20745;-75
2022/12/03 04:44:31;;;;;;;40.17;20.02;;;3.80;58.80;;;;;;5012705;28;20898;-74
2022/12/03 04:46:23;;;;;;;39.65;22.67;;;3.80;60.10;;;;;;5012685;28;20766;-74
2022/12/03 04:48:49;;;;;;;42.83;22.30;;;3.70;60.30;;;;;;5013187;28;20389;-72
2022/12/03 04:51:14;;;;;;;37.50;21.13;;;3.80;58.60;;;;;;5012561;28;20525;-72
2022/12/03 04:53:40;;;;;;;38.57;20.00;;;3.90;57.10;;;;;;5013339;28;20788;-73
2022/12/03 04:56:05;;;;;;;38.53;21.57;;;3.90;55.90;;;;;;5013611;28;20393;-74
2022/12/03 04:58:31;;;;;;;39.23;21.03;;;3.90;56.40;;;;;;5013267;28;20498;-73
2022/12/03 05:00:56;;;;;;;40.77;22.57;;;3.70;58.00;;;;;;5011488;28;20397;-74
2022/12/03 05:03:22;;;;;;;40.00;22.07;;;3.80;60.60;;;;;;5012734;28;20397;-74
2022/12/03 05:05:47;;;;;;;38.30;20.10;;;3.90;57.10;;;;;;5012835;28;20388;-74
2022/12/03 05:08:13;;;;;;;44.25;21.50;;;4.00;55.00;;;;;;5012834;28;20468;-74
2022/12/03 05:10:38;;;;;;;40.15;22.13;;;4.00;56.40;;;;;;5013161;28;20384;-73
2022/12/03 05:13:04;;;;;;;38.15;20.23;;;3.80;58.60;;;;;;5010316;28;20380;-73
2022/12/03 05:15:30;;;;;;;40.45;20.40;;;3.80;59.30;;;;;;5013670;28;20397;-73
2022/12/03 05:17:55;;;;;;;40.58;20.98;;;3.90;57.00;;;;;;5012870;28;20881;-74
2022/12/03 05:23:05;;;;;;;39.97;20.43;;;3.80;55.00;;;;;;5012165;28;20452;-73
2022/12/03 05:25:30;;;;;;;41.30;21.90;;;3.90;55.10;;;;;;5014626;28;20865;-73
2022/12/03 05:27:56;;;;;;;40.03;20.40;;;3.90;54.40;;;;;;5013627;28;20870;-73
2022/12/03 05:30:21;;;;;;;38.07;19.80;;;4.10;53.00;;;;;;5012703;28;20874;-73
2022/12/03 05:32:47;;;;;;;36.65;19.10;;;4.00;52.20;;;;;;5012066;28;20452;-73
2022/12/03 05:35:12;;;;;;;39.63;20.05;;;4.00;51.50;;;;;;5012059;28;20439;-74
2022/12/03 05:37:38;;;;;;;38.65;21.05;;;4.00;52.00;;;;;;5012098;28;20476;-74
2022/12/03 05:40:04;;;;;;;44.83;21.83;;;3.80;52.10;;;;;;5011933;28;20936;-74
2022/12/03 05:45:14;;;;;;;39.93;20.57;;;3.80;56.40;;;;;;5011642;28;20404;-74
2022/12/03 05:47:40;;;;;;;42.80;21.17;;;3.70;56.10;;;;;;5010051;28;20389;-73
2022/12/03 05:50:06;;;;;;;37.83;20.33;;;3.80;54.70;;;;;;5011511;28;20448;-74
2022/12/03 05:52:31;;;;;;;39.80;20.63;;;4.00;53.70;;;;;;5010666;28;20455;-73
2022/12/03 05:54:57;;;;;;;46.97;22.00;;;3.90;51.80;;;;;;5011397;28;20389;-73
2022/12/03 05:57:22;;;;;;;38.63;20.10;;;3.90;54.10;;;;;;5011156;28;20471;-74
2022/12/03 06:00:07;;;;;;;40.22;21.70;;;3.70;55.40;;;;;;4998856;28;21289;-74
2022/12/03 06:02:33;;;;;;;40.00;21.13;;;3.70;55.80;;;;;;5010837;28;20400;-74
2022/12/03 06:04:58;;;;;;;43.72;21.33;;;3.90;53.00;;;;;;5011409;28;20785;-74
2022/12/03 06:07:24;;;;;;;39.30;20.30;;;4.00;53.50;;;;;;5011200;28;20384;-74
2022/12/03 06:09:50;;;;;;;40.87;20.83;;;4.00;50.90;;;;;;5011314;28;20390;-74
2022/12/03 06:12:15;;;;;;;38.90;20.20;;;4.00;50.30;;;;;;5010753;28;20870;-74
2022/12/03 06:14:41;;;;;;;36.57;19.00;;;4.00;50.10;;;;;;5011097;28;20388;-73
2022/12/03 06:17:06;;;;;;;38.73;20.30;;;4.00;50.00;;;;;;5010948;28;20379;-73
2022/12/03 06:19:32;;;;;;;41.22;20.73;;;3.90;51.00;;;;;;5011377;28;20411;-74
2022/12/03 06:21:58;;;;;;;41.83;21.45;;;3.90;51.40;;;;;;5010728;28;20389;-74
2022/12/03 06:24:23;;;;;;;42.20;21.40;;;3.70;53.50;;;;;;5010823;28;20462;-74
2022/12/03 06:26:49;;;;;;;42.00;20.40;;;3.80;53.40;;;;;;5011011;28;20391;-74
2022/12/03 06:29:14;;;;;;;40.43;20.10;;;3.90;52.10;;;;;;5010910;28;20387;-74
2022/12/03 06:31:40;;;;;;;41.47;21.83;;;3.90;52.70;;;;;;5010308;28;20385;-74
2022/12/03 06:34:05;;;;;;;41.07;20.70;;;3.90;53.00;;;;;;5010883;28;20416;-72
2022/12/03 06:36:31;;;;;;;40.87;20.57;;;3.80;52.20;;;;;;5011130;28;20396;-73
2022/12/03 06:38:56;;;;;;;39.83;21.23;;;3.80;51.00;;;;;;5010858;28;20468;-74
2022/12/03 06:41:22;;;;;;;44.55;21.85;;;3.70;55.60;;;;;;5010323;28;20392;-74
2022/12/03 06:43:48;;;;;;;49.40;23.10;;;3.60;55.50;;;;;;5010923;28;20408;-74
2022/12/03 06:46:13;;;;;;;47.78;22.88;;;3.50;57.60;;;;;;5009573;28;20385;-72
2022/12/03 06:48:39;;;;;;;46.13;23.10;;;3.40;57.70;;;;;;5011235;28;20431;-73
2022/12/03 06:51:04;;;;;;;41.80;21.80;;;3.40;59.40;;;;;;5010468;28;20388;-73
2022/12/03 06:53:30;;;;;;;45.73;23.40;;;3.40;59.70;;;;;;5011072;28;20393;-72
2022/12/03 06:55:56;;;;;;;50.30;24.73;;;3.30;62.40;;;;;;5011418;28;20415;-73
2022/12/03 06:58:21;;;;;;;45.45;21.67;;;3.30;61.80;;;;;;5011111;28;20409;-73
2022/12/03 07:00:47;;;;;;;47.38;23.20;;;3.30;61.40;;;;;;5010482;28;20408;-73
2022/12/03 07:03:12;;;;;;;46.72;22.23;;;3.30;63.20;;;;;;5016149;28;20511;-74
2022/12/03 07:05:39;;;;;;;43.20;21.92;;;3.30;59.20;;;;;;5017399;28;20385;-73
2022/12/03 07:08:04;;;;;;;44.67;22.85;;;3.20;61.80;;;;;;5013892;28;20424;-73
2022/12/03 07:10:30;;;;;;;45.70;22.58;;;3.30;63.10;;;;;;5012345;28;20385;-73
2022/12/03 07:12:56;;;;;;;41.53;20.77;;;3.30;60.10;;;;;;5011601;28;20420;-74
2022/12/03 07:15:21;;;;;;;43.67;22.60;;;3.20;57.60;;;;;;5012401;28;20383;-74
2022/12/03 07:17:47;;;;;;;46.13;23.15;;;3.00;59.60;;;;;;5013208;28;20397;-73
2022/12/03 07:20:13;;;;;;;48.50;24.25;;;3.10;64.00;;;;;;5012420;28;20824;-74
2022/12/03 07:22:38;;;;;;;45.50;23.40;;;3.20;64.90;;;;;;5015687;28;20867;-73
2022/12/03 07:25:05;;;;;;;46.93;23.33;;;3.30;61.50;;;;;;5013426;28;20750;-73
2022/12/03 07:27:30;;;;;;;43.55;23.13;;;3.20;60.60;;;;;;5014751;28;20388;-74
2022/12/03 07:29:56;;;;;;;44.57;22.83;;;3.20;63.80;;;;;;5016617;28;20385;-73
2022/12/03 07:32:21;;;;;;;47.47;23.80;;;3.20;62.40;;;;;;5019200;28;20376;-73
2022/12/03 07:34:47;;;;;;;47.00;23.50;;;3.10;65.50;;;;;;5020816;28;20396;-74
2022/12/03 07:37:12;;;;;;;46.13;22.60;;;3.10;61.00;;;;;;5027882;28;20392;-73
2022/12/03 07:39:38;;;;;;;43.85;23.33;;;3.10;60.30;;;;;;5031504;28;20381;-73
2022/12/03 07:42:03;;;;;;;44.13;21.52;;;3.10;63.00;;;;;;5030741;28;20432;-74
2022/12/03 07:44:32;;;;;;;43.33;22.75;;;3.10;58.80;;;;;;5019738;28;20413;-75
2022/12/03 07:46:58;;;;;;;47.17;22.55;;;3.20;58.10;;;;;;5014811;28;20380;-73
2022/12/03 07:49:25;;;;;;;45.63;22.92;;;3.20;59.10;;;;;;5015002;28;20385;-74
2022/12/03 07:51:54;;;;;;;42.88;21.27;;;3.20;57.50;;;;;;5014988;28;20451;-74
2022/12/03 07:54:20;;;;;;;40.67;20.77;;;3.20;55.10;;;;;;5012996;28;20393;-75
2022/12/03 07:56:48;;;;;;;44.37;22.00;;;3.30;58.10;;;;;;5014739;28;20650;-75
2022/12/03 07:59:15;;;;;;;44.22;22.40;;;3.20;57.10;;;;;;5013940;28;20408;-73
2022/12/03 08:01:41;;;;;;;45.03;21.30;;;3.20;60.10;;;;;;5013417;28;20924;-74
2022/12/03 08:04:06;;;;;;;42.78;20.80;;;3.30;61.00;;;;;;5012595;28;20436;-74
2022/12/03 08:06:32;;;;;;;37.90;19.35;;;3.40;57.20;;;;;;5013611;28;20697;-73
2022/12/03 08:08:57;;;;;;;41.80;21.53;;;3.50;57.00;;;;;;5013282;28;20384;-73
2022/12/03 08:11:23;;;;;;;39.43;20.43;;;3.40;58.20;;;;;;5011393;28;20452;-74
2022/12/03 08:13:48;;;;;;;45.83;21.20;;;3.40;59.80;;;;;;5013740;28;20382;-74
2022/12/03 08:16:17;;;;;;;44.47;23.30;;;3.50;55.50;;;;;;5013767;28;20482;-74
2022/12/03 08:18:45;;;;;;;41.75;20.65;;;3.70;56.20;;;;;;5013532;28;20531;-73
2022/12/03 08:21:16;;;;;;;42.97;23.15;;;3.80;51.80;;;;;;5013070;28;20428;-74
2022/12/03 08:23:41;;;;;;;38.88;20.20;;;3.90;51.60;;;;;;5013655;28;20428;-73
2022/12/03 08:26:21;;;;;;;43.40;21.30;;;3.90;51.10;;;;;;5013546;28;20901;-74
2022/12/03 08:28:47;;;;;;;40.40;21.55;;;3.90;52.10;;;;;;5013695;28;20491;-73
2022/12/03 08:31:24;;;;;;;36.08;17.95;;;4.00;49.90;;;;;;5011329;28;20459;-73
2022/12/03 08:33:58;;;;;;;37.10;18.80;;;4.10;47.30;;;;;;5013607;28;20730;-73
2022/12/03 08:36:32;;;;;;;38.05;20.15;;;4.10;49.00;;;;;;5014664;28;20753;-73
2022/12/03 08:39:13;;;;;;;40.63;20.90;;;3.90;49.00;;;;;;5015672;28;20444;-74
2022/12/03 08:44:31;;;;;;;38.13;18.60;;;4.10;48.00;;;;;;5015146;28;20415;-74
2022/12/03 08:47:05;;;;;;;36.53;19.33;;;4.10;46.30;;;;;;5013591;28;20399;-74
2022/12/03 08:49:31;;;;;;;37.00;19.38;;;4.10;46.60;;;;;;5014763;28;20854;-73
2022/12/03 08:51:59;;;;;;;40.40;19.40;;;4.10;46.50;;;;;;5012886;28;20388;-73
2022/12/03 08:54:26;;;;;;;38.00;19.58;;;4.20;47.10;;;;;;5013773;28;20481;-74
2022/12/03 08:56:51;;;;;;;38.10;19.90;;;4.20;47.00;;;;;;5014933;28;20403;-73
2022/12/03 08:59:27;;;;;;;37.90;19.75;;;4.30;47.30;;;;;;5034418;23;20440;-75
2022/12/03 09:01:53;;;;;;;36.03;19.85;;;4.30;45.90;;;;;;5013349;28;20384;-75
2022/12/03 09:04:45;;;;;;;41.00;22.50;;;4.20;46.10;;;;;;5011915;28;20401;-75
2022/12/03 09:07:11;;;;;;;40.70;20.80;;;4.20;48.30;;;;;;5011143;28;20401;-74
2022/12/03 09:09:37;;;;;;;42.17;22.37;;;4.30;47.50;;;;;;5012362;28;20439;-73
2022/12/03 09:12:03;;;;;;;42.03;22.13;;;4.40;46.80;;;;;;5011799;28;20395;-74
2022/12/03 09:14:28;;;;;;;41.90;21.38;;;4.60;48.20;;;;;;5011901;28;20447;-74
2022/12/03 09:16:55;;;;;;;40.47;21.57;;;4.80;44.50;;;;;;5012126;28;20870;-75
2022/12/03 09:19:25;;;;;;;37.50;20.42;;;5.00;42.60;;;;;;5011970;28;20446;-75
2022/12/03 09:21:52;;;;;;;40.70;21.00;;;5.20;42.80;;;;;;5011247;28;20420;-73
2022/12/03 09:24:18;;;;;;;36.90;20.33;;;5.30;40.60;;;;;;5012477;28;20428;-73
2022/12/03 09:26:43;;;;;;;40.40;20.63;;;5.50;38.60;;;;;;5012048;28;20947;-73
2022/12/03 09:29:09;;;;;;;35.13;20.70;;;5.70;38.40;;;;;;5012002;28;20516;-75
2022/12/03 09:31:35;;;;;;;38.50;20.67;;;5.70;39.80;;;;;;5011144;28;20766;-74
2022/12/03 09:34:01;;;;;;;42.03;22.00;;;5.60;38.70;;;;;;5011905;28;20404;-74
2022/12/03 09:36:27;;;;;;;38.53;21.17;;;5.50;39.40;;;;;;5011832;28;20472;-74
2022/12/03 09:38:52;;;;;;;39.20;20.60;;;5.40;39.20;;;;;;5011881;28;20388;-74
2022/12/03 09:41:18;;;;;;;38.00;21.83;;;5.30;40.70;;;;;;5011439;28;20385;-75
2022/12/03 09:43:44;;;;;;;39.00;20.50;;;5.30;42.50;;;;;;5010779;28;20404;-75
2022/12/03 09:46:10;;;;;;;33.77;19.07;;;5.10;39.90;;;;;;5012080;28;20476;-73
2022/12/03 09:48:35;;;;;;;38.92;20.10;;;5.20;38.50;;;;;;5027029;28;20392;-75
2022/12/03 09:51:02;;;;;;;39.63;20.30;;;5.20;39.20;;;;;;5011349;28;20391;-73
2022/12/03 09:53:28;;;;;;;34.30;19.80;;;5.10;40.30;;;;;;5011136;28;20424;-73
2022/12/03 09:55:57;;;;;;;39.90;21.10;;;5.00;40.40;;;;;;5022603;28;20384;-74
2022/12/03 09:58:26;;;;;;;39.60;19.23;;;5.00;43.20;;;;;;5024881;28;20834;-75
2022/12/03 10:00:51;;;;;;;35.65;18.75;;;5.20;39.50;;;;;;5024897;28;20384;-73
2022/12/03 10:03:20;;;;;;;37.83;19.42;;;5.30;38.70;;;;;;5036119;28;20499;-75
2022/12/03 10:05:46;;;;;;;39.80;19.20;;;5.40;38.00;;;;;;5017581;28;20416;-74
2022/12/03 10:08:17;;;;;;;36.55;19.40;;;5.40;37.80;;;;;;5017942;28;20385;-73
2022/12/03 10:10:43;;;;;;;36.97;19.30;;;5.30;37.30;;;;;;5019022;28;20444;-75
2022/12/03 10:13:17;;;;;;;38.72;20.27;;;5.20;37.80;;;;;;5012464;28;20393;-75
2022/12/03 10:15:42;;;;;;;37.75;20.75;;;5.10;38.60;;;;;;5015819;28;20388;-73
2022/12/03 10:18:22;;;;;;;42.80;20.95;;;5.00;42.10;;;;;;5012911;28;20436;-73
2022/12/03 10:20:49;;;;;;;36.83;20.23;;;5.00;40.30;;;;;;5011234;28;20388;-73
2022/12/03 10:23:22;;;;;;;40.55;20.48;;;4.90;42.00;;;;;;5011280;28;20458;-73
2022/12/03 10:25:59;;;;;;;39.88;22.02;;;4.90;44.40;;;;;;5011124;28;20395;-74
2022/12/03 10:28:36;;;;;;;38.67;21.45;;;5.10;42.70;;;;;;5025868;28;20483;-73
2022/12/03 10:31:05;;;;;;;39.13;19.53;;;5.10;44.60;;;;;;5010349;28;20478;-73
2022/12/03 10:33:33;;;;;;;38.92;20.00;;;5.20;39.10;;;;;;5011368;28;20388;-74
2022/12/03 10:36:26;;;;;;;39.10;21.10;;;5.10;40.20;;;;;;5011881;28;20404;-74
2022/12/03 10:39:11;;;;;;;35.75;20.42;;;5.10;39.60;;;;;;5009694;28;20886;-74
2022/12/03 10:41:38;;;;;;;37.15;20.67;;;5.20;40.00;;;;;;5010076;28;20415;-74
2022/12/03 10:44:21;;;;;;;37.85;20.83;;;5.30;39.90;;;;;;5010716;28;20491;-73
2022/12/03 10:47:10;;;;;;;44.63;21.23;;;5.30;41.50;;;;;;5010622;28;20389;-72
2022/12/03 10:49:36;;;;;;;35.97;20.85;;;5.40;40.60;;;;;;5010569;28;20392;-74
2022/12/03 10:52:02;;;;;;;34.50;19.07;;;5.40;38.50;;;;;;5010302;28;20377;-74
2022/12/03 10:54:30;;;;;;;34.53;19.48;;;5.60;37.00;;;;;;5010398;28;20427;-73
2022/12/03 10:56:56;;;;;;;37.35;20.35;;;5.80;39.10;;;;;;5010629;28;20943;-74
2022/12/03 10:59:30;;;;;;;36.88;20.00;;;6.00;37.60;;;;;;5011503;28;20761;-74
2022/12/03 11:01:56;;;;;;;38.55;19.88;;;6.00;36.60;;;;;;5011170;28;20405;-74
2022/12/03 11:04:32;;;;;;;36.35;20.48;;;6.00;36.20;;;;;;5013585;28;20431;-73
2022/12/03 11:07:00;;;;;;;36.70;20.90;;;6.20;35.40;;;;;;5023053;28;20408;-75
2022/12/03 11:09:28;;;;;;;39.47;20.73;;;6.30;37.10;;;;;;5021876;28;20397;-76
2022/12/03 11:11:54;;;;;;;33.65;19.80;;;6.20;35.30;;;;;;5014352;28;20392;-73
2022/12/03 11:14:49;;;;;;;38.50;20.00;;;6.20;35.90;;;;;;5016582;28;20387;-74
2022/12/03 11:17:43;;;;;;;37.33;21.63;;;6.20;36.90;;;;;;5016723;28;20398;-74
2022/12/03 11:20:24;;;;;;;38.65;21.52;;;6.20;36.90;;;;;;5015065;28;20404;-73
2022/12/03 11:22:57;;;;;;;36.17;19.90;;;6.40;37.50;;;;;;5013678;28;20426;-74
2022/12/03 11:25:26;;;;;;;33.20;19.67;;;6.50;33.80;;;;;;5014517;28;20865;-76
2022/12/03 11:28:10;;;;;;;35.13;19.52;;;6.50;32.70;;;;;;5014545;28;20381;-74
2022/12/03 11:30:48;;;;;;;33.70;19.23;;;6.50;34.30;;;;;;5016348;28;20471;-74
2022/12/03 11:33:30;;;;;;;35.40;19.83;;;6.30;33.70;;;;;;5013896;28;20399;-74
2022/12/03 11:36:04;;;;;;;36.15;19.98;;;6.20;33.90;;;;;;5015724;28;20381;-74
2022/12/03 11:38:36;;;;;;;33.20;19.15;;;6.10;34.30;;;;;;5016899;28;20806;-74
2022/12/03 11:41:28;;;;;;;34.88;19.85;;;6.00;34.60;;;;;;5020990;28;20393;-78
2022/12/03 11:43:56;;;;;;;36.08;19.85;;;6.00;35.30;;;;;;5018781;28;20408;-75
2022/12/03 11:46:38;;;;;;;35.53;21.10;;;6.00;35.40;;;;;;5013866;28;20400;-73
2022/12/03 11:49:24;;;;;;;39.33;19.55;;;5.90;36.20;;;;;;5013615;28;20839;-72
2022/12/03 11:51:50;;;;;;;34.40;20.45;;;5.80;37.70;;;;;;5012790;28;20467;-75
2022/12/03 11:54:17;;;;;;;40.28;22.10;;;5.80;36.30;;;;;;5014343;28;20961;-75
2022/12/03 11:56:45;;;;;;;39.38;22.55;;;5.90;38.10;;;;;;5013958;28;20389;-73
2022/12/03 11:59:11;;;;;;;36.13;20.30;;;5.90;36.20;;;;;;5012448;28;20773;-74
2022/12/03 12:01:39;;;;;;;37.80;21.50;;;6.00;35.40;;;;;;5014210;28;20393;-73
2022/12/03 12:04:24;;;;;;;39.65;21.83;;;6.10;35.40;;;;;;5014086;28;20403;-74
2022/12/03 12:06:50;;;;;;;43.80;23.15;;;6.00;35.70;;;;;;5015932;28;20480;-75
2022/12/03 12:09:54;;;;;;;37.75;20.70;;;5.90;37.30;;;;;;5013375;28;20416;-75
2022/12/03 12:12:30;;;;;;;33.92;20.48;;;6.10;34.20;;;;;;4997967;28;20399;-75
2022/12/03 12:14:57;;;;;;;40.65;23.42;;;6.10;36.10;;;;;;5003651;28;20423;-74
2022/12/03 12:17:34;;;;;;;39.38;21.63;;;6.00;35.00;;;;;;5013086;28;20393;-75
2022/12/03 12:20:25;;;;;;;37.63;20.58;;;6.10;34.90;;;;;;5014887;28;20387;-73
2022/12/03 12:22:53;;;;;;;40.03;21.83;;;5.90;34.50;;;;;;5014327;28;20407;-73
2022/12/03 12:25:51;;;;;;;39.08;21.63;;;5.90;35.60;;;;;;5030127;28;20392;-72
2022/12/03 12:28:16;;;;;;;40.35;21.45;;;5.80;36.20;;;;;;5002024;28;20416;-77
2022/12/03 12:30:42;;;;;;;40.38;23.05;;;5.70;38.70;;;;;;5016619;28;20438;-75
2022/12/03 12:33:19;;;;;;;41.85;22.13;;;5.50;38.80;;;;;;5017498;28;20407;-76
2022/12/03 12:35:45;;;;;;;41.58;23.10;;;5.50;40.80;;;;;;5033652;28;20478;-74
2022/12/03 12:38:19;;;;;;;39.90;22.45;;;5.50;39.30;;;;;;5052295;28;20399;-76
2022/12/03 12:40:48;;;;;;;43.75;23.65;;;5.60;38.30;;;;;;5034460;28;20388;-76
2022/12/03 12:43:26;;;;;;;43.53;24.30;;;5.60;37.70;;;;;;5030409;28;20392;-75
2022/12/03 12:45:54;;;;;;;43.63;24.35;;;5.50;40.40;;;;;;5032831;28;20456;-76
2022/12/03 12:48:26;;;;;;;46.55;24.00;;;5.60;39.30;;;;;;5034924;28;20389;-77
2022/12/03 12:51:13;;;;;;;44.25;24.13;;;5.70;38.10;;;;;;5027633;28;20488;-76
2022/12/03 12:53:41;;;;;;;68.90;26.23;;;5.70;37.90;;;;;;5028176;28;20400;-74
2022/12/03 12:56:16;;;;;;;45.17;24.52;;;5.60;37.10;;;;;;5034714;28;20443;-76
2022/12/03 12:58:42;;;;;;;42.83;24.40;;;5.60;38.70;;;;;;5027883;28;20401;-76
2022/12/03 13:01:18;;;;;;;43.20;24.65;;;5.40;39.80;;;;;;5031676;28;20396;-77
2022/12/03 13:03:44;;;;;;;44.42;24.15;;;5.50;38.80;;;;;;5032949;28;20552;-76
2022/12/03 13:06:14;;;;;;;40.63;22.93;;;5.50;38.80;;;;;;5032433;28;20388;-75
2022/12/03 13:08:43;;;;;;;45.22;23.33;;;5.50;38.60;;;;;;5033500;28;20391;-74
2022/12/03 13:11:40;;;;;;;43.78;25.02;;;5.50;38.20;;;;;;5034495;28;20437;-76